createdAt,value
2023-04-17T00:01:06.276Z,7.63
2023-04-17T00:03:33.809Z,8.50
2023-04-17T00:06:01.061Z,8.15
2023-04-17T00:08:28.103Z,9.27
2023-04-17T00:11:06.411Z,10.30
2023-04-17T00:13:35.508Z,9.60
2023-04-17T00:16:02.866Z,9.65
2023-04-17T00:18:30.159Z,9.27
2023-04-17T00:20:57.311Z,9.32
2023-04-17T00:23:26.114Z,9.15
2023-04-17T00:25:53.089Z,10.90
2023-04-17T00:28:20.116Z,10.15
2023-04-17T00:30:47.233Z,10.48
2023-04-17T00:33:14.395Z,9.65
2023-04-17T00:35:41.628Z,9.35
2023-04-17T00:38:09.434Z,9.45
2023-04-17T00:40:36.671Z,8.80
2023-04-17T00:43:04.919Z,8.82
2023-04-17T00:45:32.091Z,7.63
2023-04-17T00:48:01.570Z,8.50
2023-04-17T00:50:29.234Z,9.13
2023-04-17T00:52:56.290Z,8.90
2023-04-17T00:55:23.568Z,10.02
2023-04-17T00:57:51.218Z,9.85
2023-04-17T01:00:21.422Z,10.52
2023-04-17T01:02:48.778Z,10.73
2023-04-17T01:05:16.084Z,10.52
2023-04-17T01:07:43.164Z,9.93
2023-04-17T01:10:10.682Z,9.55
2023-04-17T01:12:37.870Z,9.23
2023-04-17T01:15:05.821Z,9.63
2023-04-17T01:17:33.020Z,9.45
2023-04-17T01:20:00.165Z,8.23
2023-04-17T01:22:27.258Z,8.18
2023-04-17T01:24:54.417Z,7.85
2023-04-17T01:27:22.759Z,8.10
2023-04-17T01:29:50.034Z,7.43
2023-04-17T01:32:18.154Z,8.02
2023-04-17T01:34:45.493Z,7.10
2023-04-17T01:37:12.629Z,8.90
2023-04-17T01:39:39.849Z,7.93
2023-04-17T01:42:06.971Z,9.00
2023-04-17T01:44:34.108Z,8.23
2023-04-17T01:47:01.200Z,7.53
2023-04-17T01:49:28.503Z,9.50
2023-04-17T01:51:55.615Z,9.10
2023-04-17T01:54:23.930Z,9.55
2023-04-17T01:56:51.763Z,8.57
2023-04-17T01:59:19.066Z,9.48
2023-04-17T02:01:46.162Z,10.02
2023-04-17T02:04:13.475Z,11.15
2023-04-17T02:06:40.850Z,10.75
2023-04-17T02:09:08.002Z,11.18
2023-04-17T02:11:35.239Z,9.90
2023-04-17T02:14:02.411Z,11.30
2023-04-17T02:16:29.763Z,10.25
2023-04-17T02:18:56.848Z,9.90
2023-04-17T02:21:23.910Z,8.98
2023-04-17T02:23:50.873Z,10.50
2023-04-17T02:26:18.104Z,10.38
2023-04-17T02:28:45.749Z,10.63
2023-04-17T02:31:13.397Z,10.88
2023-04-17T02:33:40.694Z,10.07
2023-04-17T02:36:07.984Z,10.50
2023-04-17T02:38:34.957Z,9.30
2023-04-17T02:41:02.059Z,10.40
2023-04-17T02:43:29.175Z,10.40
2023-04-17T02:45:56.457Z,9.23
2023-04-17T02:48:23.482Z,9.77
2023-04-17T02:50:50.649Z,10.13
2023-04-17T02:53:17.632Z,10.32
2023-04-17T02:55:44.682Z,9.43
2023-04-17T02:58:11.781Z,10.05
2023-04-17T03:00:39.618Z,10.43
2023-04-17T03:03:08.248Z,9.63
2023-04-17T03:05:36.046Z,8.18
2023-04-17T03:08:03.533Z,8.90
2023-04-17T03:10:30.767Z,8.70
2023-04-17T03:12:57.809Z,9.75
2023-04-17T03:15:24.852Z,9.43
2023-04-17T03:17:51.983Z,11.23
2023-04-17T03:20:19.138Z,10.10
2023-04-17T03:22:46.365Z,9.90
2023-04-17T03:25:13.441Z,11.52
2023-04-17T03:27:41.063Z,11.23
2023-04-17T03:30:09.012Z,12.15
2023-04-17T03:32:36.167Z,12.52
2023-04-17T03:35:03.212Z,10.00
2023-04-17T03:37:32.197Z,12.60
2023-04-17T03:39:59.324Z,13.13
2023-04-17T03:42:27.353Z,10.07
2023-04-17T03:44:55.645Z,13.30
2023-04-17T03:47:22.745Z,12.77
2023-04-17T03:49:49.854Z,13.15
2023-04-17T03:52:16.970Z,12.63
2023-04-17T03:54:44.095Z,12.38
2023-04-17T03:57:11.258Z,13.68
2023-04-17T03:59:38.287Z,14.00
2023-04-17T04:02:05.738Z,14.27
2023-04-17T04:04:33.158Z,14.52
2023-04-17T04:07:02.626Z,14.30
2023-04-17T04:09:29.710Z,14.10
2023-04-17T04:11:57.544Z,14.38
2023-04-17T04:14:24.659Z,16.50
2023-04-17T04:16:51.889Z,15.27
2023-04-17T04:19:18.892Z,16.15
2023-04-17T04:21:46.183Z,15.35
2023-04-17T04:24:14.532Z,13.73
2023-04-17T04:26:42.524Z,13.98
2023-04-17T04:29:12.146Z,12.68
2023-04-17T04:31:39.951Z,12.43
2023-04-17T04:34:08.061Z,11.73
2023-04-17T04:36:42.098Z,11.63
2023-04-17T04:39:09.971Z,11.95
2023-04-17T04:41:38.519Z,11.90
2023-04-17T04:44:05.902Z,11.70
2023-04-17T04:46:33.089Z,11.10
2023-04-17T04:49:00.212Z,10.77
2023-04-17T04:51:27.360Z,9.77
2023-04-17T04:53:54.356Z,10.35
2023-04-17T04:56:21.443Z,9.00
2023-04-17T04:58:48.572Z,10.20
2023-04-17T05:01:16.347Z,9.30
2023-04-17T05:03:47.258Z,8.43
2023-04-17T05:06:14.514Z,5.82
2023-04-17T05:08:41.775Z,5.90
2023-04-17T05:11:09.098Z,5.55
2023-04-17T05:13:36.445Z,6.22
2023-04-17T05:16:03.598Z,5.40
2023-04-17T05:18:30.820Z,5.30
2023-04-17T05:20:57.984Z,5.15
2023-04-17T05:23:25.040Z,5.85
2023-04-17T05:25:52.529Z,5.63
2023-04-17T05:28:19.969Z,6.40
2023-04-17T05:30:46.992Z,6.00
2023-04-17T05:33:14.039Z,5.47
2023-04-17T05:35:41.405Z,6.68
2023-04-17T05:38:08.588Z,6.28
2023-04-17T05:40:35.888Z,6.55
2023-04-17T05:43:13.280Z,6.57
2023-04-17T05:45:41.751Z,7.20
2023-04-17T05:48:09.011Z,7.22
2023-04-17T05:50:37.770Z,6.70
2023-04-17T05:53:05.231Z,6.85
2023-04-17T05:55:32.895Z,7.57
2023-04-17T05:58:10.411Z,7.15
2023-04-17T06:00:44.787Z,7.68
2023-04-17T06:03:12.249Z,7.20
2023-04-17T06:05:39.677Z,7.18
2023-04-17T06:08:07.298Z,6.47
2023-04-17T06:10:34.505Z,5.43
2023-04-17T06:13:02.394Z,6.20
2023-04-17T06:15:29.559Z,5.55
2023-04-17T06:17:56.642Z,5.60
2023-04-17T06:20:23.756Z,5.60
2023-04-17T06:22:51.046Z,6.32
2023-04-17T06:25:18.528Z,5.68
2023-04-17T06:27:45.624Z,4.88
2023-04-17T06:30:15.816Z,5.28
2023-04-17T06:32:43.781Z,5.75
2023-04-17T06:35:11.707Z,5.68
2023-04-17T06:37:38.778Z,4.97
2023-04-17T06:40:06.795Z,5.25
2023-04-17T06:42:35.559Z,6.15
2023-04-17T06:45:02.833Z,4.93
2023-04-17T06:47:33.691Z,4.82
2023-04-17T06:50:00.797Z,4.35
2023-04-17T06:52:27.835Z,4.75
2023-04-17T06:54:56.228Z,5.00
2023-04-17T06:57:23.433Z,4.30
2023-04-17T06:59:50.520Z,3.88
2023-04-17T07:02:17.942Z,4.03
2023-04-17T07:04:45.210Z,3.97
2023-04-17T07:07:12.457Z,3.88
2023-04-17T07:09:39.709Z,3.30
2023-04-17T07:12:06.939Z,3.97
2023-04-17T07:14:35.473Z,4.10
2023-04-17T07:17:02.945Z,3.50
2023-04-17T07:19:29.944Z,3.13
2023-04-17T07:21:57.356Z,2.83
2023-04-17T07:24:24.665Z,3.00
2023-04-17T07:26:51.746Z,2.50
2023-04-17T07:29:18.743Z,2.88
2023-04-17T07:31:45.991Z,2.22
2023-04-17T07:34:13.086Z,2.85
2023-04-17T07:36:40.128Z,2.90
2023-04-17T07:39:08.251Z,2.50
2023-04-17T07:41:35.632Z,2.72
2023-04-17T07:44:06.051Z,3.03
2023-04-17T07:46:33.206Z,2.67
2023-04-17T07:49:00.757Z,3.97
2023-04-17T07:51:28.154Z,2.75
2023-04-17T07:53:55.675Z,3.10
2023-04-17T07:56:22.751Z,3.40
2023-04-17T07:58:52.315Z,2.97
2023-04-17T08:01:19.444Z,2.88
2023-04-17T08:03:46.669Z,2.25
2023-04-17T08:06:14.089Z,2.20
2023-04-17T08:08:41.341Z,2.00
2023-04-17T08:11:08.416Z,2.47
2023-04-17T08:13:35.707Z,2.38
2023-04-17T08:16:02.802Z,2.42
2023-04-17T08:18:29.867Z,2.72
2023-04-17T08:20:56.893Z,2.28
2023-04-17T08:23:23.889Z,2.15
2023-04-17T08:25:51.071Z,2.08
2023-04-17T08:28:18.494Z,2.70
2023-04-17T08:30:45.664Z,2.05
2023-04-17T08:33:13.646Z,2.38
2023-04-17T08:35:40.884Z,2.47
2023-04-17T08:38:10.498Z,2.20
2023-04-17T08:40:40.742Z,2.33
2023-04-17T08:43:15.697Z,2.47
2023-04-17T08:48:25.081Z,2.25
2023-04-17T08:50:53.873Z,2.22
2023-04-17T08:55:49.262Z,2.30
2023-04-17T08:58:16.588Z,1.70
2023-04-17T09:00:45.453Z,2.20
2023-04-17T09:03:14.236Z,2.20
2023-04-17T09:05:46.151Z,1.98
2023-04-17T09:08:22.542Z,2.90
2023-04-17T09:10:51.903Z,2.08
2023-04-17T09:13:26.515Z,2.15
2023-04-17T09:16:13.335Z,2.60
2023-04-17T09:18:42.897Z,2.33
2023-04-17T09:21:10.548Z,2.28
2023-04-17T09:23:56.872Z,2.35
2023-04-17T09:26:25.951Z,2.20
2023-04-17T09:29:05.016Z,2.38
2023-04-17T09:31:34.753Z,2.15
2023-04-17T09:34:07.760Z,2.20
2023-04-17T09:36:39.797Z,2.30
2023-04-17T09:39:24.133Z,2.40
2023-04-17T09:42:04.439Z,1.95
2023-04-17T09:44:32.473Z,2.05
2023-04-17T09:47:01.499Z,2.42
2023-04-17T09:49:45.035Z,2.17
2023-04-17T09:52:13.324Z,2.58
2023-04-17T09:54:42.061Z,2.63
2023-04-17T09:57:10.849Z,2.50
2023-04-17T09:59:50.742Z,2.28
2023-04-17T10:02:20.294Z,2.28
2023-04-17T10:04:48.188Z,1.90
2023-04-17T10:07:16.728Z,2.22
2023-04-17T10:09:46.015Z,2.78
2023-04-17T10:12:18.924Z,2.50
2023-04-17T10:14:49.979Z,2.50
2023-04-17T10:17:34.791Z,2.50
2023-04-17T10:20:23.672Z,2.45
2023-04-17T10:22:56.400Z,2.75
2023-04-17T10:25:38.801Z,2.60
2023-04-17T10:28:07.548Z,2.20
2023-04-17T10:33:24.900Z,2.17
2023-04-17T10:35:52.267Z,2.00
2023-04-17T10:38:36.541Z,2.60
2023-04-17T10:41:08.618Z,2.50
2023-04-17T10:43:39.749Z,2.70
2023-04-17T10:46:11.566Z,2.70
2023-04-17T10:48:53.137Z,2.22
2023-04-17T10:51:29.341Z,2.90
2023-04-17T10:54:03.226Z,2.83
2023-04-17T10:56:37.387Z,2.70
2023-04-17T10:59:11.855Z,2.42
2023-04-17T11:01:48.660Z,2.58
2023-04-17T11:04:23.826Z,2.45
2023-04-17T11:06:52.851Z,2.45
2023-04-17T11:09:21.997Z,2.47
2023-04-17T11:11:49.085Z,2.72
2023-04-17T11:14:18.284Z,2.25
2023-04-17T11:16:47.444Z,2.65
2023-04-17T11:19:21.632Z,3.35
2023-04-17T11:21:53.918Z,3.08
2023-04-17T11:24:29.960Z,2.78
2023-04-17T11:27:03.856Z,3.00
2023-04-17T11:29:31.857Z,3.35
2023-04-17T11:32:01.031Z,3.03
2023-04-17T11:34:28.207Z,2.45
2023-04-17T11:37:00.950Z,2.85
2023-04-17T11:39:31.021Z,2.70
2023-04-17T11:41:58.571Z,3.00
2023-04-17T11:44:26.621Z,2.83
2023-04-17T11:46:59.131Z,3.33
2023-04-17T11:49:37.621Z,3.03
2023-04-17T11:52:05.726Z,2.65
2023-04-17T11:54:37.494Z,2.83
2023-04-17T11:57:06.539Z,2.72
2023-04-17T11:59:38.135Z,3.00
2023-04-17T12:02:07.478Z,2.88
2023-04-17T12:04:38.352Z,3.10
2023-04-17T12:07:07.567Z,3.05
2023-04-17T12:09:35.879Z,3.45
2023-04-17T12:12:07.548Z,3.25
2023-04-17T12:14:35.485Z,3.25
2023-04-17T12:17:02.502Z,3.45
2023-04-17T12:19:33.030Z,3.53
2023-04-17T12:22:00.512Z,3.53
2023-04-17T12:24:27.684Z,3.42
2023-04-17T12:26:54.897Z,3.47
2023-04-17T12:29:36.205Z,2.85
2023-04-17T12:32:10.624Z,3.78
2023-04-17T12:34:38.070Z,3.40
2023-04-17T12:37:05.764Z,3.20
2023-04-17T12:39:33.572Z,3.40
2023-04-17T12:42:00.849Z,3.45
2023-04-17T12:44:27.905Z,3.45
2023-04-17T12:46:55.074Z,3.47
2023-04-17T12:49:23.907Z,3.00
2023-04-17T12:51:51.676Z,3.95
2023-04-17T12:54:19.113Z,2.65
2023-04-17T12:56:46.212Z,3.22
2023-04-17T12:59:13.240Z,3.28
2023-04-17T13:01:40.685Z,3.28
2023-04-17T13:04:07.982Z,3.47
2023-04-17T13:06:35.788Z,3.35
2023-04-17T13:09:02.887Z,3.20
2023-04-17T13:11:29.933Z,2.97
2023-04-17T13:13:57.061Z,3.78
2023-04-17T13:16:24.299Z,3.45
2023-04-17T13:18:51.329Z,3.67
2023-04-17T13:21:18.424Z,3.20
2023-04-17T13:23:45.596Z,3.45
2023-04-17T13:26:12.558Z,3.60
2023-04-17T13:28:40.006Z,3.30
2023-04-17T13:31:07.071Z,3.40
2023-04-17T13:33:34.158Z,3.17
2023-04-17T13:36:02.404Z,3.75
2023-04-17T13:38:30.685Z,3.63
2023-04-17T13:40:57.896Z,3.20
2023-04-17T13:43:24.961Z,3.55
2023-04-17T13:45:54.930Z,3.17
2023-04-17T13:48:22.971Z,3.13
2023-04-17T13:50:50.273Z,3.17
2023-04-17T13:53:17.440Z,3.50
2023-04-17T13:55:44.543Z,3.72
2023-04-17T13:58:12.066Z,3.28
2023-04-17T14:00:39.133Z,3.75
2023-04-17T14:03:06.512Z,3.63
2023-04-17T14:05:33.847Z,3.92
2023-04-17T14:08:01.183Z,3.50
2023-04-17T14:10:28.434Z,3.85
2023-04-17T14:12:55.547Z,3.67
2023-04-17T14:15:22.669Z,4.10
2023-04-17T14:17:49.719Z,4.13
2023-04-17T14:20:18.102Z,3.80
2023-04-17T14:22:45.849Z,3.22
2023-04-17T14:25:16.419Z,3.42
2023-04-17T14:27:43.436Z,4.03
2023-04-17T14:30:10.888Z,3.33
2023-04-17T14:32:40.685Z,3.03
2023-04-17T14:35:08.273Z,3.80
2023-04-17T14:37:35.523Z,3.60
2023-04-17T14:40:02.815Z,4.00
2023-04-17T14:42:34.118Z,3.72
2023-04-17T14:45:06.270Z,3.45
2023-04-17T14:47:34.232Z,3.38
2023-04-17T14:50:01.682Z,5.38
2023-04-17T14:52:32.310Z,3.80
2023-04-17T14:54:59.801Z,3.45
2023-04-17T14:57:26.855Z,2.88
2023-04-17T14:59:53.943Z,3.00
2023-04-17T15:02:21.066Z,3.08
2023-04-17T15:04:50.527Z,3.50
2023-04-17T15:07:17.681Z,2.97
2023-04-17T15:09:44.871Z,4.82
2023-04-17T15:12:11.848Z,3.33
2023-04-17T15:14:38.820Z,3.38
2023-04-17T15:17:07.093Z,3.28
2023-04-17T15:19:34.203Z,3.58
2023-04-17T15:22:01.346Z,4.40
2023-04-17T15:24:28.620Z,3.17
2023-04-17T15:26:55.742Z,3.42
2023-04-17T15:29:22.858Z,3.20
2023-04-17T15:31:52.453Z,3.30
2023-04-17T15:34:19.771Z,3.28
2023-04-17T15:36:47.548Z,3.53
2023-04-17T15:39:14.810Z,3.00
2023-04-17T15:41:42.129Z,3.75
2023-04-17T15:44:09.188Z,3.42
2023-04-17T15:46:36.311Z,3.78
2023-04-17T15:49:09.186Z,2.97
2023-04-17T15:51:38.090Z,3.60
2023-04-17T15:54:06.803Z,3.42
2023-04-17T15:56:33.807Z,3.20
2023-04-17T15:59:01.457Z,3.33
2023-04-17T16:01:28.986Z,3.30
2023-04-17T16:03:56.331Z,3.65
2023-04-17T16:06:23.558Z,3.55
2023-04-17T16:08:50.715Z,6.50
2023-04-17T16:11:17.743Z,3.72
2023-04-17T16:13:45.061Z,3.25
2023-04-17T16:16:15.076Z,6.03
2023-04-17T16:18:42.244Z,4.82
2023-04-17T16:21:12.466Z,3.42
2023-04-17T16:23:39.676Z,3.55
2023-04-17T16:26:07.477Z,3.35
2023-04-17T16:28:35.481Z,2.75
2023-04-17T16:31:02.724Z,3.95
2023-04-17T16:33:29.840Z,3.95
2023-04-17T16:35:57.575Z,3.97
2023-04-17T16:38:24.667Z,4.05
2023-04-17T16:40:53.717Z,4.72
2023-04-17T16:43:20.796Z,3.80
2023-04-17T16:45:47.767Z,4.60
2023-04-17T16:48:14.965Z,4.40
2023-04-17T16:50:42.457Z,7.97
2023-04-17T16:53:09.534Z,4.80
2023-04-17T16:55:37.069Z,5.45
2023-04-17T16:58:04.604Z,4.82
2023-04-17T17:00:32.380Z,4.82
2023-04-17T17:02:59.813Z,4.80
2023-04-17T17:05:27.024Z,5.00
2023-04-17T17:07:54.423Z,3.88
2023-04-17T17:10:21.566Z,4.57
2023-04-17T17:12:48.782Z,3.75
2023-04-17T17:15:15.890Z,3.50
2023-04-17T17:17:43.419Z,3.50
2023-04-17T17:20:11.862Z,4.10
2023-04-17T17:22:38.864Z,4.00
2023-04-17T17:25:06.576Z,3.45
2023-04-17T17:27:33.689Z,3.65
2023-04-17T17:30:00.957Z,3.92
2023-04-17T17:32:28.849Z,4.28
2023-04-17T17:34:55.904Z,3.97
2023-04-17T17:37:23.022Z,3.78
2023-04-17T17:39:50.129Z,3.40
2023-04-17T17:42:17.169Z,3.63
2023-04-17T17:44:44.259Z,3.90
2023-04-17T17:47:11.378Z,4.18
2023-04-17T17:49:38.555Z,4.18
2023-04-17T17:52:05.670Z,5.20
2023-04-17T17:54:38.933Z,3.83
2023-04-17T17:57:06.789Z,4.65
2023-04-17T17:59:34.072Z,4.43
2023-04-17T18:02:02.384Z,3.90
2023-04-17T18:04:29.982Z,4.10
2023-04-17T18:06:57.184Z,3.78
2023-04-17T18:09:24.311Z,3.80
2023-04-17T18:11:51.393Z,4.43
2023-04-17T18:14:18.437Z,2.92
2023-04-17T18:16:45.670Z,3.35
2023-04-17T18:19:12.785Z,3.60
2023-04-17T18:21:40.098Z,3.17
2023-04-17T18:24:07.812Z,3.63
2023-04-17T18:26:34.808Z,3.80
2023-04-17T18:29:02.138Z,7.15
2023-04-17T18:31:29.421Z,9.65
2023-04-17T18:33:56.632Z,14.65
2023-04-17T18:36:24.263Z,21.55
2023-04-17T18:38:51.612Z,21.20
2023-04-17T18:41:19.155Z,13.75
2023-04-17T18:43:46.326Z,22.85
2023-04-17T18:46:13.487Z,17.73
2023-04-17T18:48:40.711Z,17.48
2023-04-17T18:51:11.911Z,15.45
2023-04-17T18:53:39.309Z,15.70
2023-04-17T18:56:08.609Z,17.20
2023-04-17T18:58:37.794Z,12.65
2023-04-17T19:01:06.446Z,13.70
2023-04-17T19:03:34.363Z,11.48
2023-04-17T19:06:01.425Z,5.97
2023-04-17T19:08:29.225Z,6.25
2023-04-17T19:10:57.142Z,4.60
2023-04-17T19:13:25.334Z,4.30
2023-04-17T19:15:52.423Z,4.13
2023-04-17T19:18:21.760Z,4.15
2023-04-17T19:20:49.665Z,3.58
2023-04-17T19:23:16.918Z,4.18
2023-04-17T19:25:56.762Z,2.90
2023-04-17T19:28:34.628Z,3.80
2023-04-17T19:31:03.236Z,2.95
2023-04-17T19:33:31.346Z,3.30
2023-04-17T19:35:58.965Z,3.78
2023-04-17T19:38:26.234Z,3.30
2023-04-17T19:41:15.280Z,2.85
2023-04-17T19:46:09.834Z,3.33
2023-04-17T19:48:37.468Z,4.43
2023-04-17T19:51:07.460Z,3.90
2023-04-17T19:53:39.713Z,3.88
2023-04-17T19:56:08.790Z,4.55
2023-04-17T19:58:37.143Z,4.40
2023-04-17T20:01:04.902Z,4.70
2023-04-17T20:03:32.849Z,3.83
2023-04-17T20:06:00.694Z,4.03
2023-04-17T20:08:27.961Z,3.67
2023-04-17T20:10:55.043Z,4.18
2023-04-17T20:13:22.130Z,4.80
2023-04-17T20:15:49.377Z,5.35
2023-04-17T20:18:17.524Z,5.07
2023-04-17T20:20:44.687Z,4.85
2023-04-17T20:23:12.475Z,4.82
2023-04-17T20:25:39.651Z,5.80
2023-04-17T20:28:06.664Z,5.60
2023-04-17T20:30:33.823Z,5.85
2023-04-17T20:33:01.669Z,5.60
2023-04-17T20:35:28.750Z,6.03
2023-04-17T20:37:56.177Z,6.18
2023-04-17T20:40:23.136Z,5.90
2023-04-17T20:42:50.541Z,5.28
2023-04-17T20:45:17.707Z,5.45
2023-04-17T20:52:42.592Z,5.80
2023-04-17T20:55:09.876Z,5.65
2023-04-17T20:57:37.008Z,5.45
2023-04-17T21:00:04.865Z,5.93
2023-04-17T21:02:34.541Z,6.85
2023-04-17T21:05:01.595Z,5.93
2023-04-17T21:07:31.071Z,6.72
2023-04-17T21:09:58.079Z,5.78
2023-04-17T21:12:25.153Z,6.43
2023-04-17T21:14:52.223Z,6.32
2023-04-17T21:17:19.355Z,5.70
2023-04-17T21:19:46.511Z,6.55
2023-04-17T21:22:13.662Z,5.85
2023-04-17T21:24:40.727Z,5.93
2023-04-17T21:27:07.877Z,6.82
2023-04-17T21:29:34.959Z,7.75
2023-04-17T21:32:02.070Z,5.80
2023-04-17T21:34:29.130Z,5.97
2023-04-17T21:36:56.213Z,7.20
2023-04-17T21:39:23.324Z,7.10
2023-04-17T21:41:50.446Z,6.35
2023-04-17T21:44:17.660Z,5.82
2023-04-17T21:46:47.837Z,7.50
2023-04-17T21:49:14.835Z,7.03
2023-04-17T21:51:42.027Z,6.88
2023-04-17T21:54:10.055Z,6.70
2023-04-17T21:56:37.238Z,7.05
2023-04-17T21:59:04.383Z,6.82
2023-04-17T22:01:31.513Z,6.68
2023-04-17T22:03:58.625Z,6.35
2023-04-17T22:06:26.341Z,6.38
2023-04-17T22:08:53.454Z,7.05
2023-04-17T22:11:20.610Z,6.88
2023-04-17T22:13:47.684Z,6.05
2023-04-17T22:16:14.797Z,6.88
2023-04-17T22:18:42.146Z,6.00
2023-04-17T22:21:09.309Z,5.95
2023-04-17T22:23:36.325Z,6.32
2023-04-17T22:26:03.517Z,6.03
2023-04-17T22:28:31.457Z,6.55
2023-04-17T22:30:59.537Z,7.05
2023-04-17T22:33:26.629Z,6.55
2023-04-17T22:35:53.799Z,5.88
2023-04-17T22:38:21.410Z,5.65
2023-04-17T22:40:48.821Z,6.25
2023-04-17T22:43:15.951Z,6.28
2023-04-17T22:45:43.745Z,6.32
2023-04-17T22:48:11.353Z,6.30
2023-04-17T22:50:38.745Z,5.65
2023-04-17T22:53:05.998Z,5.88
2023-04-17T22:55:33.560Z,7.30
2023-04-17T22:58:02.412Z,7.00
2023-04-17T23:00:31.315Z,6.15
2023-04-17T23:02:58.626Z,5.90
2023-04-17T23:05:25.813Z,6.72
2023-04-17T23:07:53.005Z,6.30
2023-04-17T23:10:21.036Z,6.15
2023-04-17T23:12:48.428Z,6.45
2023-04-17T23:15:15.443Z,5.97
2023-04-17T23:17:42.565Z,5.15
2023-04-17T23:20:10.765Z,6.75
2023-04-17T23:22:37.968Z,6.45
2023-04-17T23:25:05.972Z,6.10
2023-04-17T23:27:33.354Z,6.97
2023-04-17T23:30:00.420Z,5.88
2023-04-17T23:32:27.695Z,6.00
2023-04-17T23:34:55.014Z,5.20
2023-04-17T23:37:21.998Z,5.82
2023-04-17T23:39:48.979Z,5.90
2023-04-17T23:42:16.221Z,5.15
2023-04-17T23:44:43.452Z,5.57
2023-04-17T23:47:11.667Z,4.95
2023-04-17T23:49:38.819Z,5.82
2023-04-17T23:52:05.893Z,6.32
2023-04-17T23:54:32.997Z,5.72
2023-04-17T23:57:00.211Z,5.68
2023-04-17T23:59:27.288Z,5.55
